Time;durP1;ratioP1;P1;durP2;ratioP2;P2;SDS_P1;SDS_P2;PMS_P1;PMS_P2;Temp;Humidity;BMP_temperature;BMP_pressure;BME280_temperature;BME280_humidity;BME280_pressure;Samples;Min_cycle;Max_cycle;Signal;HPM_P1;HPM_P2
2021/10/01 00:02:09;;;;;;;6.57;2.03;;;;;;;;;;5030881;28;20268;-72
2021/10/01 00:04:35;;;;;;;5.47;1.83;;;;;;;;;;5028454;28;20546;-72
2021/10/01 00:07:00;;;;;;;9.23;2.58;;;;;;;;;;5030182;28;20202;-73
2021/10/01 00:09:25;;;;;;;6.28;1.88;;;;;;;;;;5032781;28;20548;-73
2021/10/01 00:11:54;;;;;;;7.07;1.75;;;;;;;;;;5029835;28;20175;-72
2021/10/01 00:14:20;;;;;;;4.70;1.60;;;;;;;;;;5028744;28;20232;-72
2021/10/01 00:16:45;;;;;;;6.45;2.08;;;;;;;;;;5030523;28;20201;-72
2021/10/01 00:19:11;;;;;;;5.72;1.58;;;;;;;;;;5025458;28;20213;-72
2021/10/01 00:21:36;;;;;;;3.70;1.23;;;;;;;;;;5023001;28;20197;-73
2021/10/01 00:24:02;;;;;;;3.05;1.90;;;;;;;;;;5028576;28;20194;-73
2021/10/01 00:26:27;;;;;;;3.55;1.63;;;;;;;;;;5030378;28;20611;-73
2021/10/01 00:28:52;;;;;;;6.85;2.15;;;;;;;;;;5032811;28;20550;-73
2021/10/01 00:31:17;;;;;;;3.85;1.77;;;;;;;;;;5033232;28;20261;-72
2021/10/01 00:33:42;;;;;;;4.70;1.35;;;;;;;;;;5022575;28;20206;-72
2021/10/01 00:36:07;;;;;;;5.00;1.52;;;;;;;;;;5028651;28;20252;-72
2021/10/01 00:38:33;;;;;;;5.47;1.52;;;;;;;;;;5033394;28;20182;-72
2021/10/01 00:40:58;;;;;;;2.70;1.52;;;;;;;;;;5032094;28;20217;-72
2021/10/01 00:43:23;;;;;;;5.72;1.27;;;;;;;;;;5031355;28;20198;-72
2021/10/01 00:45:48;;;;;;;2.95;1.42;;;;;;;;;;5028168;28;20179;-72
2021/10/01 00:48:13;;;;;;;2.53;1.45;;;;;;;;;;5031658;28;20206;-73
2021/10/01 00:50:39;;;;;;;3.78;1.73;;;;;;;;;;5031593;28;20177;-72
2021/10/01 00:53:05;;;;;;;3.92;1.55;;;;;;;;;;5029483;28;20495;-72
2021/10/01 00:55:30;;;;;;;3.97;1.48;;;;;;;;;;5008136;28;20183;-72
2021/10/01 00:57:55;;;;;;;3.83;2.08;;;;;;;;;;5022403;28;20266;-72
2021/10/01 01:00:30;;;;;;;5.70;1.55;;;;;;;;;;5032442;28;20202;-71
2021/10/01 01:02:56;;;;;;;5.30;1.75;;;;;;;;;;5031010;28;20198;-71
2021/10/01 01:05:24;;;;;;;2.97;1.73;;;;;;;;;;5032335;28;20206;-71
2021/10/01 01:07:53;;;;;;;4.05;1.63;;;;;;;;;;5032579;28;20256;-72
2021/10/01 01:10:45;;;;;;;3.78;1.50;;;;;;;;;;5027769;28;20178;-72
2021/10/01 01:13:22;;;;;;;3.70;1.30;;;;;;;;;;5030187;28;20261;-72
2021/10/01 01:15:51;;;;;;;4.25;1.52;;;;;;;;;;5027762;28;20648;-72
2021/10/01 01:18:22;;;;;;;4.07;1.33;;;;;;;;;;5032296;28;20186;-73
2021/10/01 01:20:50;;;;;;;4.15;1.73;;;;;;;;;;5021676;28;20855;-73
2021/10/01 01:23:33;;;;;;;5.07;1.75;;;;;;;;;;5015152;28;20199;-72
2021/10/01 01:26:12;;;;;;;2.75;1.50;;;;;;;;;;5014899;28;20190;-72
2021/10/01 01:28:40;;;;;;;4.40;1.90;;;;;;;;;;5013753;28;20189;-72
2021/10/01 01:31:23;;;;;;;3.70;1.40;;;;;;;;;;5015819;28;20916;-72
2021/10/01 01:33:49;;;;;;;3.75;1.58;;;;;;;;;;5017572;28;20617;-70
2021/10/01 01:36:14;;;;;;;2.53;1.30;;;;;;;;;;5014574;28;20185;-73
2021/10/01 01:38:42;;;;;;;2.38;1.67;;;;;;;;;;5013939;28;20182;-73
2021/10/01 01:41:08;;;;;;;4.82;1.75;;;;;;;;;;5013700;28;20201;-71
2021/10/01 01:43:33;;;;;;;3.45;1.50;;;;;;;;;;5014507;28;20207;-71
2021/10/01 01:46:00;;;;;;;4.53;1.67;;;;;;;;;;5014074;28;20873;-73
2021/10/01 01:48:25;;;;;;;3.75;2.05;;;;;;;;;;5012560;28;20209;-73
2021/10/01 01:50:50;;;;;;;4.47;1.70;;;;;;;;;;5013061;28;20182;-73
2021/10/01 01:53:17;;;;;;;5.22;1.48;;;;;;;;;;5013163;28;20583;-73
2021/10/01 01:55:44;;;;;;;2.92;1.35;;;;;;;;;;5010595;28;20198;-73
2021/10/01 01:58:10;;;;;;;3.33;1.17;;;;;;;;;;5017903;28;21668;-72
2021/10/01 02:00:35;;;;;;;2.42;1.20;;;;;;;;;;5010868;28;20244;-72
2021/10/01 02:03:01;;;;;;;4.23;1.60;;;;;;;;;;5014817;28;20236;-72
2021/10/01 02:05:26;;;;;;;4.60;1.40;;;;;;;;;;5015673;28;20961;-72
2021/10/01 02:07:54;;;;;;;2.42;1.38;;;;;;;;;;5011665;28;20765;-72
2021/10/01 02:10:21;;;;;;;2.33;1.10;;;;;;;;;;5013518;28;20189;-72
2021/10/01 02:12:48;;;;;;;2.77;1.60;;;;;;;;;;5028358;23;20234;-70
2021/10/01 02:15:14;;;;;;;5.13;2.42;;;;;;;;;;5008358;28;20659;-68
2021/10/01 02:17:41;;;;;;;2.25;1.20;;;;;;;;;;5008082;28;20490;-69
2021/10/01 02:20:08;;;;;;;4.88;2.33;;;;;;;;;;5009629;28;20190;-68
2021/10/01 02:22:34;;;;;;;5.90;1.90;;;;;;;;;;5000355;28;20210;-68
2021/10/01 02:24:59;;;;;;;4.63;1.40;;;;;;;;;;4997099;28;20195;-69
2021/10/01 02:27:27;;;;;;;4.22;1.15;;;;;;;;;;4994243;28;20202;-69
2021/10/01 02:29:57;;;;;;;2.92;1.35;;;;;;;;;;4995102;28;20245;-69
2021/10/01 02:32:22;;;;;;;3.63;1.90;;;;;;;;;;4996925;28;20199;-68
2021/10/01 02:34:48;;;;;;;2.67;1.40;;;;;;;;;;5005016;28;20225;-69
2021/10/01 02:37:14;;;;;;;3.75;1.48;;;;;;;;;;5008521;28;20428;-68
2021/10/01 02:39:43;;;;;;;3.17;1.20;;;;;;;;;;5009167;28;20487;-69
2021/10/01 02:42:09;;;;;;;6.47;1.95;;;;;;;;;;5007437;28;20217;-69
2021/10/01 02:44:35;;;;;;;4.65;1.73;;;;;;;;;;5009168;28;20581;-69
2021/10/01 02:47:01;;;;;;;3.97;2.13;;;;;;;;;;5011016;28;20234;-69
2021/10/01 02:49:26;;;;;;;4.47;1.63;;;;;;;;;;5010094;28;20751;-69
2021/10/01 02:51:55;;;;;;;2.90;1.53;;;;;;;;;;5009697;28;20595;-68
2021/10/01 02:54:26;;;;;;;2.50;1.20;;;;;;;;;;5009713;28;20203;-69
2021/10/01 02:56:55;;;;;;;4.93;1.30;;;;;;;;;;5005435;28;20186;-69
2021/10/01 02:59:22;;;;;;;5.17;1.27;;;;;;;;;;5007065;28;20707;-69
2021/10/01 03:01:48;;;;;;;3.37;1.63;;;;;;;;;;5009119;28;20558;-69
2021/10/01 03:04:14;;;;;;;3.60;1.37;;;;;;;;;;5007604;28;20205;-69
2021/10/01 03:06:42;;;;;;;6.53;2.70;;;;;;;;;;5009654;28;20207;-68
2021/10/01 03:09:08;;;;;;;4.60;1.50;;;;;;;;;;5001403;28;20638;-69
2021/10/01 03:11:33;;;;;;;4.27;1.20;;;;;;;;;;4993910;28;20214;-68
2021/10/01 03:13:59;;;;;;;3.20;1.20;;;;;;;;;;4990993;28;20482;-68
2021/10/01 03:16:25;;;;;;;3.53;1.30;;;;;;;;;;4995453;28;20187;-68
2021/10/01 03:18:51;;;;;;;2.60;1.30;;;;;;;;;;4997960;28;20594;-68
2021/10/01 03:21:18;;;;;;;3.50;1.20;;;;;;;;;;5000203;28;20188;-68
2021/10/01 03:23:43;;;;;;;2.63;1.47;;;;;;;;;;4996668;28;20217;-68
2021/10/01 03:26:09;;;;;;;3.57;1.20;;;;;;;;;;4998774;28;20187;-69
2021/10/01 03:28:35;;;;;;;5.47;1.70;;;;;;;;;;4996871;28;20213;-68
2021/10/01 03:31:01;;;;;;;3.50;1.53;;;;;;;;;;4999031;28;20199;-68
2021/10/01 03:33:27;;;;;;;3.70;1.60;;;;;;;;;;4995929;28;20198;-68
2021/10/01 03:35:53;;;;;;;6.93;1.60;;;;;;;;;;4997819;28;20222;-68
2021/10/01 03:38:19;;;;;;;4.60;1.30;;;;;;;;;;4998169;28;20409;-68
2021/10/01 03:40:46;;;;;;;4.40;1.30;;;;;;;;;;4998386;28;20277;-69
2021/10/01 03:43:11;;;;;;;4.90;1.37;;;;;;;;;;4998590;28;20214;-69
2021/10/01 03:45:37;;;;;;;2.23;1.27;;;;;;;;;;4995660;28;20580;-68
2021/10/01 03:48:03;;;;;;;2.43;1.10;;;;;;;;;;4999089;28;20235;-68
2021/10/01 03:50:29;;;;;;;3.10;1.40;;;;;;;;;;4998058;28;20182;-68
2021/10/01 03:52:54;;;;;;;7.37;1.40;;;;;;;;;;4996451;28;20209;-69
2021/10/01 03:55:21;;;;;;;4.43;1.67;;;;;;;;;;4997947;28;20187;-69
2021/10/01 03:57:47;;;;;;;4.03;1.30;;;;;;;;;;4998508;28;20199;-68
2021/10/01 04:00:13;;;;;;;5.17;1.93;;;;;;;;;;4998892;28;20202;-68
2021/10/01 04:02:38;;;;;;;6.90;1.73;;;;;;;;;;4996179;28;20286;-68
2021/10/01 04:05:03;;;;;;;2.97;1.70;;;;;;;;;;4998774;28;20191;-69
2021/10/01 04:07:28;;;;;;;2.70;1.20;;;;;;;;;;4998483;28;20205;-68
2021/10/01 04:09:53;;;;;;;4.53;1.60;;;;;;;;;;4997504;28;20178;-68
2021/10/01 04:12:19;;;;;;;4.67;1.30;;;;;;;;;;4998225;28;20218;-69
2021/10/01 04:14:44;;;;;;;7.73;1.60;;;;;;;;;;5000358;28;20192;-68
2021/10/01 04:17:09;;;;;;;5.07;1.57;;;;;;;;;;4998645;28;20175;-69
2021/10/01 04:19:34;;;;;;;4.30;1.20;;;;;;;;;;5001336;28;20280;-69
2021/10/01 04:21:59;;;;;;;4.87;1.60;;;;;;;;;;4999419;28;20269;-68
2021/10/01 04:24:25;;;;;;;4.20;1.63;;;;;;;;;;4998849;28;20211;-68
2021/10/01 04:26:50;;;;;;;4.83;1.43;;;;;;;;;;5011103;28;20222;-67
2021/10/01 04:29:15;;;;;;;4.43;1.40;;;;;;;;;;4999479;28;20195;-68
2021/10/01 04:31:40;;;;;;;4.67;1.10;;;;;;;;;;4999406;28;20174;-68
2021/10/01 04:34:07;;;;;;;3.43;1.33;;;;;;;;;;5004087;28;20199;-68
2021/10/01 04:36:33;;;;;;;2.93;1.07;;;;;;;;;;5000665;28;20254;-68
2021/10/01 04:38:58;;;;;;;3.40;1.33;;;;;;;;;;5009813;28;20163;-68
2021/10/01 04:41:23;;;;;;;7.90;2.87;;;;;;;;;;5011641;28;20178;-71
2021/10/01 04:43:49;;;;;;;3.23;1.33;;;;;;;;;;5010683;28;20442;-69
2021/10/01 04:46:14;;;;;;;3.47;1.00;;;;;;;;;;5012112;28;20171;-70
2021/10/01 04:48:39;;;;;;;3.70;1.10;;;;;;;;;;5010378;28;20220;-69
2021/10/01 04:51:05;;;;;;;2.13;1.03;;;;;;;;;;5011567;28;20189;-67
2021/10/01 04:53:30;;;;;;;6.17;1.37;;;;;;;;;;5015842;28;20621;-68
2021/10/01 04:55:55;;;;;;;5.53;1.40;;;;;;;;;;5012983;28;20191;-68
2021/10/01 04:58:20;;;;;;;3.77;1.30;;;;;;;;;;5011070;28;20175;-68
2021/10/01 05:00:45;;;;;;;5.50;1.27;;;;;;;;;;5009805;28;20171;-70
2021/10/01 05:03:11;;;;;;;5.10;1.23;;;;;;;;;;5008270;28;20206;-69
2021/10/01 05:05:36;;;;;;;3.13;1.17;;;;;;;;;;5011954;28;21429;-68
2021/10/01 05:08:02;;;;;;;7.40;1.40;;;;;;;;;;4997882;28;20206;-67
2021/10/01 05:10:27;;;;;;;2.80;1.20;;;;;;;;;;4995582;28;20183;-67
2021/10/01 05:12:52;;;;;;;4.53;1.30;;;;;;;;;;4996695;28;20693;-67
2021/10/01 05:15:18;;;;;;;2.50;1.23;;;;;;;;;;4997691;28;20656;-68
2021/10/01 05:17:44;;;;;;;2.97;1.40;;;;;;;;;;4995691;28;20178;-69
2021/10/01 05:20:10;;;;;;;4.90;1.10;;;;;;;;;;4998886;28;20257;-68
2021/10/01 05:22:36;;;;;;;3.13;1.20;;;;;;;;;;4994441;28;20199;-68
2021/10/01 05:25:02;;;;;;;3.73;1.13;;;;;;;;;;4999236;28;20198;-68
2021/10/01 05:27:27;;;;;;;8.53;1.40;;;;;;;;;;4995481;28;20230;-68
2021/10/01 05:29:52;;;;;;;2.37;1.20;;;;;;;;;;4995392;28;20182;-69
2021/10/01 05:32:17;;;;;;;6.23;1.93;;;;;;;;;;4995757;28;20225;-68
2021/10/01 05:34:43;;;;;;;1.73;0.97;;;;;;;;;;4996278;28;20536;-69
2021/10/01 05:37:08;;;;;;;4.67;1.37;;;;;;;;;;4995484;28;20190;-68
2021/10/01 05:39:33;;;;;;;5.33;1.30;;;;;;;;;;4996681;28;20668;-68
2021/10/01 05:41:58;;;;;;;5.93;1.43;;;;;;;;;;4995631;28;20180;-69
2021/10/01 05:44:24;;;;;;;5.53;1.53;;;;;;;;;;4992796;28;20925;-68
2021/10/01 05:46:49;;;;;;;7.70;2.00;;;;;;;;;;4994271;28;20709;-69
2021/10/01 05:49:20;;;;;;;3.37;1.20;;;;;;;;;;4997134;28;20181;-68
2021/10/01 05:51:49;;;;;;;11.80;3.23;;;;;;;;;;4996444;28;20188;-68
2021/10/01 05:54:21;;;;;;;4.07;1.30;;;;;;;;;;4995197;28;20213;-68
2021/10/01 05:56:47;;;;;;;5.87;1.27;;;;;;;;;;4993812;28;20186;-69
2021/10/01 05:59:12;;;;;;;5.50;1.70;;;;;;;;;;4997085;28;20659;-69
2021/10/01 06:01:37;;;;;;;5.87;1.30;;;;;;;;;;4995077;28;20194;-68
2021/10/01 06:04:03;;;;;;;3.23;0.97;;;;;;;;;;4996971;28;20296;-68
2021/10/01 06:06:28;;;;;;;2.97;1.43;;;;;;;;;;4994862;28;20188;-69
2021/10/01 06:08:53;;;;;;;21.43;1.90;;;;;;;;;;5000922;28;20270;-69
2021/10/01 06:11:18;;;;;;;4.43;1.30;;;;;;;;;;5003271;28;20167;-69
2021/10/01 06:13:43;;;;;;;4.10;1.17;;;;;;;;;;4994841;28;20566;-68
2021/10/01 06:16:09;;;;;;;2.17;1.33;;;;;;;;;;5002924;28;20261;-69
2021/10/01 06:18:34;;;;;;;2.20;1.00;;;;;;;;;;4993614;28;20734;-68
2021/10/01 06:21:00;;;;;;;3.57;1.20;;;;;;;;;;4996679;28;20740;-68
2021/10/01 06:23:27;;;;;;;4.07;1.43;;;;;;;;;;4995290;28;20224;-69
2021/10/01 06:25:52;;;;;;;3.43;1.00;;;;;;;;;;4995379;28;20175;-68
2021/10/01 06:28:19;;;;;;;5.10;1.60;;;;;;;;;;4994260;28;20202;-68
2021/10/01 06:30:44;;;;;;;4.07;1.40;;;;;;;;;;4994912;28;20721;-69
2021/10/01 06:33:09;;;;;;;3.07;1.50;;;;;;;;;;5003383;28;20314;-69
2021/10/01 06:35:35;;;;;;;2.97;1.20;;;;;;;;;;5011763;28;20174;-69
2021/10/01 06:38:00;;;;;;;4.97;1.10;;;;;;;;;;5001125;28;20221;-69
2021/10/01 06:40:25;;;;;;;3.30;1.17;;;;;;;;;;5006046;28;20175;-69
2021/10/01 06:42:52;;;;;;;3.43;1.20;;;;;;;;;;5009690;28;20202;-69
2021/10/01 06:45:30;;;;;;;3.17;1.30;;;;;;;;;;5008772;28;20187;-69
2021/10/01 06:48:13;;;;;;;2.13;1.03;;;;;;;;;;5007300;28;20194;-68
2021/10/01 08:19:53;;;;;;;4.00;1.58;;;;;;;;;;5031298;28;20236;-71
2021/10/01 08:22:18;;;;;;;3.90;1.27;;;;;;;;;;5032714;28;20174;-71
2021/10/01 08:24:43;;;;;;;3.67;1.23;;;;;;;;;;5028254;28;20709;-70
2021/10/01 08:27:09;;;;;;;6.93;1.30;;;;;;;;;;5024390;28;20210;-71
2021/10/01 08:29:34;;;;;;;3.15;1.48;;;;;;;;;;5028833;28;20171;-70
2021/10/01 08:32:02;;;;;;;2.53;1.38;;;;;;;;;;5020426;28;20205;-70
2021/10/01 08:34:29;;;;;;;2.45;1.10;;;;;;;;;;5022649;28;20213;-71
2021/10/01 08:36:54;;;;;;;4.97;1.60;;;;;;;;;;5020285;28;20194;-71
2021/10/01 08:39:21;;;;;;;3.33;1.00;;;;;;;;;;5014083;28;20182;-71
2021/10/01 08:41:46;;;;;;;4.65;1.10;;;;;;;;;;5012440;28;20192;-70
2021/10/01 08:44:12;;;;;;;5.07;1.40;;;;;;;;;;5021050;28;20201;-71
2021/10/01 08:46:37;;;;;;;5.18;1.40;;;;;;;;;;5014467;28;20282;-70
2021/10/01 08:49:04;;;;;;;5.75;1.55;;;;;;;;;;5010051;28;20255;-69
2021/10/01 08:51:29;;;;;;;4.00;1.23;;;;;;;;;;5009272;28;20566;-70
2021/10/01 08:53:55;;;;;;;3.25;0.95;;;;;;;;;;5010767;28;20186;-69
2021/10/01 08:56:21;;;;;;;5.00;1.23;;;;;;;;;;5026170;28;20248;-69
2021/10/01 08:58:46;;;;;;;7.30;1.10;;;;;;;;;;5029309;28;20219;-70
2021/10/01 09:01:12;;;;;;;6.00;1.20;;;;;;;;;;5031756;28;20322;-72
2021/10/01 09:03:41;;;;;;;2.50;1.15;;;;;;;;;;5017437;28;20202;-69
2021/10/01 09:06:07;;;;;;;3.00;1.10;;;;;;;;;;5026958;28;20662;-69
2021/10/01 09:08:34;;;;;;;2.38;0.95;;;;;;;;;;5016340;28;20195;-70
2021/10/01 09:11:02;;;;;;;6.07;2.05;;;;;;;;;;5025641;28;20178;-70
2021/10/01 09:13:28;;;;;;;4.07;1.13;;;;;;;;;;5027532;28;20209;-69
2021/10/01 09:16:01;;;;;;;5.22;1.13;;;;;;;;;;5028255;28;20182;-69
2021/10/01 09:18:29;;;;;;;7.55;1.50;;;;;;;;;;5022232;28;20322;-70
2021/10/01 09:21:05;;;;;;;3.38;1.10;;;;;;;;;;5017432;28;20186;-69
2021/10/01 09:23:31;;;;;;;4.32;1.42;;;;;;;;;;5015411;28;20215;-69
2021/10/01 09:26:05;;;;;;;2.80;1.00;;;;;;;;;;5011764;28;20248;-68
2021/10/01 09:28:42;;;;;;;3.55;1.10;;;;;;;;;;5018063;28;20209;-69
2021/10/01 09:31:07;;;;;;;6.20;1.63;;;;;;;;;;5016033;28;20236;-71
2021/10/01 09:33:32;;;;;;;5.33;1.30;;;;;;;;;;5015937;28;20206;-72
2021/10/01 09:36:07;;;;;;;4.77;1.00;;;;;;;;;;5030869;28;20441;-70
2021/10/01 09:38:36;;;;;;;3.92;1.23;;;;;;;;;;5011759;28;20418;-70
2021/10/01 09:41:12;;;;;;;8.88;2.33;;;;;;;;;;5010676;28;20838;-71
2021/10/01 09:43:37;;;;;;;5.00;1.55;;;;;;;;;;5014185;28;20663;-70
2021/10/01 09:46:04;;;;;;;5.93;1.23;;;;;;;;;;5011824;28;20257;-69
2021/10/01 09:48:33;;;;;;;6.18;1.40;;;;;;;;;;5027506;28;20591;-70
2021/10/01 09:51:11;;;;;;;3.75;1.40;;;;;;;;;;5011688;28;20648;-70
2021/10/01 09:53:52;;;;;;;5.82;1.90;;;;;;;;;;5008120;28;20197;-69
2021/10/01 09:56:22;;;;;;;2.47;1.17;;;;;;;;;;5017137;28;20178;-71
2021/10/01 09:59:10;;;;;;;3.80;1.40;;;;;;;;;;5018934;28;20239;-69
2021/10/01 10:01:55;;;;;;;3.90;1.38;;;;;;;;;;5013729;28;20194;-70
2021/10/01 10:04:21;;;;;;;2.53;1.13;;;;;;;;;;5018667;28;20280;-70
2021/10/01 10:06:46;;;;;;;4.88;1.30;;;;;;;;;;5015518;28;20665;-69
2021/10/01 10:09:12;;;;;;;3.90;1.90;;;;;;;;;;5016797;28;20288;-69
2021/10/01 10:11:39;;;;;;;3.63;1.05;;;;;;;;;;5010670;28;20189;-69
2021/10/01 10:14:07;;;;;;;4.15;1.17;;;;;;;;;;5019003;28;20218;-70
2021/10/01 10:16:32;;;;;;;3.50;1.40;;;;;;;;;;5016036;28;20280;-71
2021/10/01 10:18:59;;;;;;;3.00;1.20;;;;;;;;;;5007991;28;20717;-71
2021/10/01 10:21:25;;;;;;;7.20;1.42;;;;;;;;;;5016100;28;20684;-71
2021/10/01 10:23:51;;;;;;;6.65;1.73;;;;;;;;;;5011524;28;20296;-71
2021/10/01 10:26:17;;;;;;;5.40;1.80;;;;;;;;;;5017946;28;20193;-70
2021/10/01 10:28:43;;;;;;;8.25;1.88;;;;;;;;;;5014309;28;20247;-70
2021/10/01 10:31:09;;;;;;;3.40;1.40;;;;;;;;;;5014414;28;20174;-71
2021/10/01 10:33:35;;;;;;;4.75;1.70;;;;;;;;;;5018228;28;20679;-70
2021/10/01 10:36:00;;;;;;;5.72;2.70;;;;;;;;;;5028835;28;20184;-69
2021/10/01 10:38:32;;;;;;;8.05;2.75;;;;;;;;;;5027044;28;20175;-71
2021/10/01 10:41:17;;;;;;;2.35;1.42;;;;;;;;;;5024590;28;20265;-70
2021/10/01 10:43:46;;;;;;;5.13;1.75;;;;;;;;;;5023790;28;20280;-70
2021/10/01 10:46:31;;;;;;;3.35;1.70;;;;;;;;;;5027720;28;20182;-70
2021/10/01 10:49:23;;;;;;;3.45;1.83;;;;;;;;;;5023533;28;20209;-71
2021/10/01 10:51:58;;;;;;;5.15;1.65;;;;;;;;;;5030139;28;20178;-70
2021/10/01 10:54:24;;;;;;;4.35;2.15;;;;;;;;;;5033967;28;20193;-71
2021/10/01 10:57:08;;;;;;;3.58;2.10;;;;;;;;;;5029660;28;20224;-69
2021/10/01 10:59:33;;;;;;;7.38;1.92;;;;;;;;;;5030685;28;20205;-69
2021/10/01 11:02:16;;;;;;;4.00;1.85;;;;;;;;;;5029303;28;20206;-69
2021/10/01 11:04:41;;;;;;;4.40;1.67;;;;;;;;;;5025171;28;20237;-70
2021/10/01 11:07:07;;;;;;;5.25;1.50;;;;;;;;;;5023025;28;20221;-70
2021/10/01 11:09:33;;;;;;;4.53;1.75;;;;;;;;;;5023109;28;20237;-70
2021/10/01 11:12:00;;;;;;;4.93;1.75;;;;;;;;;;5029262;28;20197;-70
2021/10/01 11:14:26;;;;;;;4.18;1.83;;;;;;;;;;5019814;28;20221;-70
2021/10/01 11:16:54;;;;;;;4.85;2.50;;;;;;;;;;5025200;28;20162;-71
2021/10/01 11:19:39;;;;;;;5.07;1.40;;;;;;;;;;5023664;28;20208;-70
2021/10/01 11:22:23;;;;;;;4.53;1.42;;;;;;;;;;5016772;28;20190;-71
2021/10/01 11:24:49;;;;;;;5.47;1.58;;;;;;;;;;5017086;28;20179;-71
2021/10/01 11:27:14;;;;;;;4.78;1.20;;;;;;;;;;5031908;28;20209;-71
2021/10/01 11:29:39;;;;;;;11.48;1.77;;;;;;;;;;5015437;28;20264;-71
2021/10/01 11:32:06;;;;;;;3.78;1.30;;;;;;;;;;5012689;28;20187;-69
2021/10/01 11:34:39;;;;;;;5.20;1.65;;;;;;;;;;5015947;28;20243;-70
2021/10/01 11:37:19;;;;;;;1.65;1.10;;;;;;;;;;5018663;28;20257;-71
2021/10/01 11:39:44;;;;;;;4.72;1.60;;;;;;;;;;5019404;28;20652;-71
2021/10/01 11:42:09;;;;;;;2.97;1.38;;;;;;;;;;5020075;28;20196;-71
2021/10/01 11:44:34;;;;;;;4.20;1.23;;;;;;;;;;5029982;28;20321;-72
2021/10/01 11:47:06;;;;;;;3.60;1.13;;;;;;;;;;5017354;28;20197;-68
2021/10/01 11:49:32;;;;;;;2.05;1.17;;;;;;;;;;5017030;28;20419;-68
2021/10/01 11:52:02;;;;;;;6.70;1.45;;;;;;;;;;5019548;28;20192;-70
2021/10/01 11:54:28;;;;;;;6.47;1.08;;;;;;;;;;5010666;28;20622;-70
2021/10/01 11:57:00;;;;;;;2.42;0.90;;;;;;;;;;5021576;28;20190;-70
2021/10/01 11:59:45;;;;;;;2.97;1.27;;;;;;;;;;5017750;28;20182;-70
2021/10/01 12:02:11;;;;;;;4.53;1.20;;;;;;;;;;5011235;28;20186;-69
2021/10/01 12:04:36;;;;;;;6.93;1.55;;;;;;;;;;5020385;28;20656;-71
2021/10/01 12:07:05;;;;;;;6.50;1.57;;;;;;;;;;5019878;28;20489;-71
2021/10/01 12:09:30;;;;;;;5.88;1.40;;;;;;;;;;5018219;28;20909;-70
2021/10/01 12:12:03;;;;;;;2.58;1.15;;;;;;;;;;5017987;28;20183;-70
2021/10/01 12:14:28;;;;;;;2.53;1.17;;;;;;;;;;5015933;28;20224;-71
2021/10/01 12:16:55;;;;;;;2.75;0.90;;;;;;;;;;5018946;28;20265;-70
2021/10/01 12:19:22;;;;;;;3.20;1.20;;;;;;;;;;5020198;28;20170;-70
2021/10/01 12:21:47;;;;;;;6.13;1.15;;;;;;;;;;5018654;28;20965;-70
2021/10/01 12:24:14;;;;;;;4.07;1.85;;;;;;;;;;5018641;28;20285;-70
2021/10/01 12:26:40;;;;;;;4.68;1.20;;;;;;;;;;5017742;28;20178;-71
2021/10/01 12:29:08;;;;;;;8.93;2.28;;;;;;;;;;5017312;28;20455;-69
2021/10/01 12:31:38;;;;;;;3.97;1.50;;;;;;;;;;5013351;28;20465;-71
2021/10/01 12:34:06;;;;;;;4.07;1.00;;;;;;;;;;5026869;28;20194;-71
2021/10/01 12:36:31;;;;;;;5.10;1.35;;;;;;;;;;5030221;28;20268;-71
2021/10/01 12:38:58;;;;;;;4.03;1.98;;;;;;;;;;5026625;28;20683;-71
2021/10/01 12:41:24;;;;;;;2.80;1.20;;;;;;;;;;5028341;28;20197;-71
2021/10/01 12:43:53;;;;;;;5.57;1.10;;;;;;;;;;5032657;28;20186;-70
2021/10/01 12:46:34;;;;;;;4.60;1.52;;;;;;;;;;5028634;28;20185;-69
2021/10/01 12:49:18;;;;;;;3.22;1.38;;;;;;;;;;5029391;28;20210;-69
2021/10/01 12:51:45;;;;;;;5.43;1.50;;;;;;;;;;5035989;28;20171;-69
2021/10/01 12:54:20;;;;;;;3.35;1.00;;;;;;;;;;5034907;28;20197;-70
2021/10/01 12:56:46;;;;;;;5.60;1.95;;;;;;;;;;5029988;28;20178;-69
2021/10/01 12:59:11;;;;;;;6.10;1.20;;;;;;;;;;5023410;28;20185;-71
2021/10/01 13:01:36;;;;;;;3.70;1.30;;;;;;;;;;5031469;28;20408;-70
2021/10/01 13:04:01;;;;;;;3.80;1.03;;;;;;;;;;5030565;28;20205;-70
2021/10/01 13:06:27;;;;;;;6.22;1.35;;;;;;;;;;5032145;28;20503;-70
2021/10/01 13:08:52;;;;;;;5.60;1.38;;;;;;;;;;5029812;28;20311;-71
2021/10/01 13:11:18;;;;;;;2.43;1.50;;;;;;;;;;5042406;28;20192;-70
2021/10/01 13:13:43;;;;;;;3.38;1.50;;;;;;;;;;5017554;28;20450;-69
2021/10/01 13:16:12;;;;;;;3.15;1.00;;;;;;;;;;5017174;28;20178;-69
2021/10/01 13:18:40;;;;;;;4.88;1.55;;;;;;;;;;5016269;28;20178;-69
2021/10/01 13:21:06;;;;;;;5.00;1.40;;;;;;;;;;5021796;28;20560;-70
2021/10/01 13:23:31;;;;;;;3.72;1.20;;;;;;;;;;5015909;28;20205;-70
2021/10/01 13:25:58;;;;;;;8.35;1.77;;;;;;;;;;5017405;28;20882;-69
2021/10/01 13:28:24;;;;;;;3.58;1.40;;;;;;;;;;5014234;28;20321;-70
2021/10/01 13:30:50;;;;;;;5.50;1.90;;;;;;;;;;5016010;28;20448;-71
2021/10/01 13:33:16;;;;;;;3.38;1.50;;;;;;;;;;5016200;28;20186;-71
2021/10/01 13:35:41;;;;;;;7.63;2.00;;;;;;;;;;5019394;28;20615;-71
2021/10/01 13:38:07;;;;;;;4.85;1.45;;;;;;;;;;5020223;28;20233;-70
2021/10/01 13:40:33;;;;;;;3.97;1.25;;;;;;;;;;5016191;28;20202;-70
2021/10/01 13:42:59;;;;;;;6.00;1.77;;;;;;;;;;5015439;28;20233;-71
2021/10/01 13:45:24;;;;;;;5.78;1.58;;;;;;;;;;5016942;28;20754;-71
2021/10/01 13:47:49;;;;;;;3.30;1.30;;;;;;;;;;5016913;28;20309;-70
2021/10/01 13:50:14;;;;;;;7.43;2.05;;;;;;;;;;5017483;28;20232;-71
2021/10/01 13:52:40;;;;;;;5.45;2.20;;;;;;;;;;5015007;28;20213;-69
2021/10/01 13:55:06;;;;;;;2.95;1.60;;;;;;;;;;5015523;28;20178;-70
2021/10/01 13:57:31;;;;;;;3.97;1.58;;;;;;;;;;5012569;28;20201;-71
2021/10/01 13:59:56;;;;;;;3.45;1.30;;;;;;;;;;5018698;28;20264;-71
2021/10/01 14:02:23;;;;;;;6.05;1.50;;;;;;;;;;5017168;28;20206;-70
2021/10/01 14:04:48;;;;;;;9.05;2.50;;;;;;;;;;5015728;28;20651;-71
2021/10/01 14:07:13;;;;;;;5.35;1.65;;;;;;;;;;5014644;28;20396;-70
2021/10/01 14:09:39;;;;;;;3.70;1.30;;;;;;;;;;5013946;28;20643;-73
2021/10/01 14:12:04;;;;;;;3.22;1.25;;;;;;;;;;5012875;28;20220;-71
2021/10/01 14:14:29;;;;;;;4.95;1.52;;;;;;;;;;5020853;28;20245;-71
2021/10/01 14:16:54;;;;;;;7.32;1.85;;;;;;;;;;5016667;28;20832;-71
2021/10/01 14:19:19;;;;;;;2.72;1.15;;;;;;;;;;5012659;28;20181;-71
2021/10/01 14:21:45;;;;;;;6.77;1.40;;;;;;;;;;5015474;28;20632;-70
2021/10/01 14:24:10;;;;;;;6.80;1.48;;;;;;;;;;5017168;28;20451;-70
2021/10/01 14:26:35;;;;;;;7.57;1.75;;;;;;;;;;5015528;28;20175;-71
2021/10/01 14:29:00;;;;;;;4.20;1.50;;;;;;;;;;5015587;28;20650;-71
2021/10/01 14:31:26;;;;;;;4.22;1.20;;;;;;;;;;5017475;28;20257;-67
2021/10/01 14:33:51;;;;;;;4.22;1.27;;;;;;;;;;5023657;28;20194;-71
2021/10/01 14:36:17;;;;;;;4.32;1.20;;;;;;;;;;5026064;28;20209;-70
2021/10/01 14:38:42;;;;;;;6.43;1.67;;;;;;;;;;5026495;28;20178;-70
2021/10/01 14:41:07;;;;;;;4.47;1.33;;;;;;;;;;5030241;28;20694;-70
2021/10/01 14:43:33;;;;;;;6.05;1.45;;;;;;;;;;5028894;28;20687;-71
2021/10/01 14:45:59;;;;;;;5.13;1.73;;;;;;;;;;5028684;28;20219;-71
2021/10/01 14:48:24;;;;;;;3.92;0.95;;;;;;;;;;5027538;28;20209;-71
2021/10/01 14:50:49;;;;;;;5.05;1.40;;;;;;;;;;5030867;28;20175;-70
2021/10/01 14:53:15;;;;;;;3.50;1.45;;;;;;;;;;5031034;28;20205;-71
2021/10/01 14:55:40;;;;;;;5.70;1.67;;;;;;;;;;5029326;28;20185;-71
2021/10/01 14:58:05;;;;;;;4.23;1.60;;;;;;;;;;5028284;28;20243;-71
2021/10/01 15:00:30;;;;;;;5.27;1.60;;;;;;;;;;5028851;28;20432;-71
2021/10/01 15:02:56;;;;;;;3.57;1.57;;;;;;;;;;5030149;28;20478;-71
2021/10/01 15:05:21;;;;;;;4.63;2.33;;;;;;;;;;5026872;28;20833;-71
2021/10/01 15:07:47;;;;;;;7.22;1.92;;;;;;;;;;5026777;28;20201;-70
2021/10/01 15:10:12;;;;;;;5.10;1.55;;;;;;;;;;5026854;28;20178;-70
2021/10/01 15:12:38;;;;;;;6.20;1.75;;;;;;;;;;5028476;28;20201;-70
2021/10/01 15:15:07;;;;;;;6.53;1.77;;;;;;;;;;5015961;28;20189;-71
2021/10/01 15:17:33;;;;;;;5.00;1.80;;;;;;;;;;5019785;28;20243;-70
2021/10/01 15:19:58;;;;;;;5.57;1.60;;;;;;;;;;5035383;28;20202;-69
2021/10/01 15:22:23;;;;;;;4.73;1.90;;;;;;;;;;5016094;28;20283;-71
2021/10/01 15:24:48;;;;;;;4.87;2.07;;;;;;;;;;5026842;28;20964;-72
2021/10/01 15:27:13;;;;;;;6.88;1.98;;;;;;;;;;5021487;28;20500;-70
2021/10/01 15:30:06;;;;;;;5.50;1.70;;;;;;;;;;5026384;28;20662;-71
2021/10/01 15:32:31;;;;;;;5.68;2.00;;;;;;;;;;5024852;28;20427;-71
2021/10/01 15:34:56;;;;;;;5.88;2.13;;;;;;;;;;5021265;28;20179;-71
2021/10/01 15:37:22;;;;;;;6.03;1.85;;;;;;;;;;5021465;28;20271;-73
2021/10/01 15:39:47;;;;;;;6.13;2.25;;;;;;;;;;5017597;28;20202;-72
2021/10/01 15:42:12;;;;;;;5.32;2.00;;;;;;;;;;5015623;28;20187;-73
2021/10/01 15:44:37;;;;;;;7.05;2.28;;;;;;;;;;5020708;28;20216;-74
2021/10/01 15:47:03;;;;;;;8.02;2.33;;;;;;;;;;5018014;28;20181;-73
2021/10/01 15:49:28;;;;;;;6.68;1.80;;;;;;;;;;5019452;28;20236;-75
2021/10/01 15:51:53;;;;;;;3.55;2.00;;;;;;;;;;5018051;28;20253;-74
2021/10/01 15:54:19;;;;;;;6.10;2.63;;;;;;;;;;5015427;28;20206;-72
2021/10/01 15:56:44;;;;;;;7.20;1.90;;;;;;;;;;5015897;28;20177;-71
2021/10/01 15:59:09;;;;;;;8.70;2.25;;;;;;;;;;5020512;28;20558;-74
2021/10/01 16:01:34;;;;;;;5.95;1.95;;;;;;;;;;5018643;28;20181;-72
2021/10/01 16:03:59;;;;;;;6.70;2.60;;;;;;;;;;5018425;28;20235;-72
2021/10/01 16:06:26;;;;;;;7.28;2.30;;;;;;;;;;5017652;28;20438;-74
2021/10/01 16:08:52;;;;;;;7.63;2.70;;;;;;;;;;5015694;28;20205;-72
2021/10/01 16:11:17;;;;;;;8.50;3.30;;;;;;;;;;5017129;28;20183;-73
2021/10/01 16:13:43;;;;;;;5.82;2.25;;;;;;;;;;5018327;28;20208;-74